sensor_id;sensor_type;location;lat;lon;timestamp;P1;durP1;ratioP1;P2;durP2;ratioP2
41229;SDS011;26964;50.428;19.218;2022-09-09T00:03:00;12.3;;;10.7;;
41229;SDS011;26964;50.428;19.218;2022-09-09T00:07:58;12.7;;;11.0;;
41229;SDS011;26964;50.428;19.218;2022-09-09T00:12:57;12.7;;;11.0;;
41229;SDS011;26964;50.428;19.218;2022-09-09T00:17:57;12.9;;;11.4;;
41229;SDS011;26964;50.428;19.218;2022-09-09T00:22:59;14.0;;;11.8;;
41229;SDS011;26964;50.428;19.218;2022-09-09T00:27:57;13.8;;;12.1;;
41229;SDS011;26964;50.428;19.218;2022-09-09T00:32:58;15.6;;;13.1;;
41229;SDS011;26964;50.428;19.218;2022-09-09T00:37:57;17.6;;;12.6;;
41229;SDS011;26964;50.428;19.218;2022-09-09T00:47:56;15.6;;;13.9;;
41229;SDS011;26964;50.428;19.218;2022-09-09T00:52:59;14.7;;;13.1;;
41229;SDS011;26964;50.428;19.218;2022-09-09T00:57:56;17.1;;;14.5;;
41229;SDS011;26964;50.428;19.218;2022-09-09T01:07:57;17.7;;;14.4;;
41229;SDS011;26964;50.428;19.218;2022-09-09T01:12:58;16.9;;;14.8;;
41229;SDS011;26964;50.428;19.218;2022-09-09T01:17:58;16.6;;;14.3;;
41229;SDS011;26964;50.428;19.218;2022-09-09T01:27:57;20.7;;;18.5;;
41229;SDS011;26964;50.428;19.218;2022-09-09T01:32:57;20.5;;;18.4;;
41229;SDS011;26964;50.428;19.218;2022-09-09T01:37:57;20.7;;;18.5;;
41229;SDS011;26964;50.428;19.218;2022-09-09T01:42:56;23.9;;;21.4;;
41229;SDS011;26964;50.428;19.218;2022-09-09T01:47:56;20.9;;;18.6;;
41229;SDS011;26964;50.428;19.218;2022-09-09T01:52:57;21.2;;;18.1;;
41229;SDS011;26964;50.428;19.218;2022-09-09T01:57:59;18.9;;;16.9;;
41229;SDS011;26964;50.428;19.218;2022-09-09T02:02:59;18.7;;;16.7;;
41229;SDS011;26964;50.428;19.218;2022-09-09T02:07:58;19.7;;;17.4;;
41229;SDS011;26964;50.428;19.218;2022-09-09T02:12:59;20.7;;;18.4;;
41229;SDS011;26964;50.428;19.218;2022-09-09T02:17:57;20.9;;;18.6;;
41229;SDS011;26964;50.428;19.218;2022-09-09T02:22:56;23.2;;;19.9;;
41229;SDS011;26964;50.428;19.218;2022-09-09T02:27:56;25.5;;;22.2;;
41229;SDS011;26964;50.428;19.218;2022-09-09T02:32:56;25.5;;;21.9;;
41229;SDS011;26964;50.428;19.218;2022-09-09T02:37:57;27.1;;;23.2;;
41229;SDS011;26964;50.428;19.218;2022-09-09T02:42:56;28.5;;;22.4;;
41229;SDS011;26964;50.428;19.218;2022-09-09T02:47:58;26.1;;;21.9;;
41229;SDS011;26964;50.428;19.218;2022-09-09T02:57:56;33.2;;;25.9;;
41229;SDS011;26964;50.428;19.218;2022-09-09T03:02:56;37.4;;;25.9;;
41229;SDS011;26964;50.428;19.218;2022-09-09T03:07:56;36.4;;;26.0;;
41229;SDS011;26964;50.428;19.218;2022-09-09T03:12:56;37.1;;;26.4;;
41229;SDS011;26964;50.428;19.218;2022-09-09T03:17:56;31.5;;;24.3;;
41229;SDS011;26964;50.428;19.218;2022-09-09T03:22:57;30.3;;;23.0;;
41229;SDS011;26964;50.428;19.218;2022-09-09T03:27:56;30.9;;;24.4;;
41229;SDS011;26964;50.428;19.218;2022-09-09T03:32:56;30.9;;;23.7;;
41229;SDS011;26964;50.428;19.218;2022-09-09T03:37:56;28.0;;;22.4;;
41229;SDS011;26964;50.428;19.218;2022-09-09T03:42:56;29.3;;;22.3;;
41229;SDS011;26964;50.428;19.218;2022-09-09T03:47:56;28.8;;;22.5;;
41229;SDS011;26964;50.428;19.218;2022-09-09T03:52:56;26.4;;;21.6;;
41229;SDS011;26964;50.428;19.218;2022-09-09T03:57:56;29.5;;;21.9;;
41229;SDS011;26964;50.428;19.218;2022-09-09T04:02:56;25.1;;;20.8;;
41229;SDS011;26964;50.428;19.218;2022-09-09T04:07:56;29.9;;;23.2;;
41229;SDS011;26964;50.428;19.218;2022-09-09T04:12:56;25.5;;;21.0;;
41229;SDS011;26964;50.428;19.218;2022-09-09T04:17:56;24.8;;;20.4;;
41229;SDS011;26964;50.428;19.218;2022-09-09T04:22:56;28.4;;;20.9;;
41229;SDS011;26964;50.428;19.218;2022-09-09T04:27:57;26.8;;;20.2;;
41229;SDS011;26964;50.428;19.218;2022-09-09T04:32:57;26.2;;;21.3;;
41229;SDS011;26964;50.428;19.218;2022-09-09T04:37:56;28.7;;;21.6;;
41229;SDS011;26964;50.428;19.218;2022-09-09T04:42:57;28.1;;;20.8;;
41229;SDS011;26964;50.428;19.218;2022-09-09T04:47:56;32.1;;;21.7;;
41229;SDS011;26964;50.428;19.218;2022-09-09T04:52:56;28.6;;;22.4;;
41229;SDS011;26964;50.428;19.218;2022-09-09T04:57:57;26.8;;;20.9;;
41229;SDS011;26964;50.428;19.218;2022-09-09T05:02:57;32.3;;;23.8;;
41229;SDS011;26964;50.428;19.218;2022-09-09T05:12:57;34.3;;;24.4;;
41229;SDS011;26964;50.428;19.218;2022-09-09T05:17:56;35.5;;;24.7;;
41229;SDS011;26964;50.428;19.218;2022-09-09T05:22:56;36.9;;;24.2;;
41229;SDS011;26964;50.428;19.218;2022-09-09T05:27:58;30.0;;;22.5;;
41229;SDS011;26964;50.428;19.218;2022-09-09T05:32:56;33.5;;;24.5;;
41229;SDS011;26964;50.428;19.218;2022-09-09T05:47:56;33.1;;;24.3;;
41229;SDS011;26964;50.428;19.218;2022-09-09T05:52:56;44.9;;;28.1;;
41229;SDS011;26964;50.428;19.218;2022-09-09T05:57:56;47.2;;;29.9;;
41229;SDS011;26964;50.428;19.218;2022-09-09T06:02:56;57.1;;;34.1;;
41229;SDS011;26964;50.428;19.218;2022-09-09T06:07:56;62.7;;;35.6;;
41229;SDS011;26964;50.428;19.218;2022-09-09T06:12:56;59.5;;;35.4;;
41229;SDS011;26964;50.428;19.218;2022-09-09T06:17:56;57.3;;;33.6;;
41229;SDS011;26964;50.428;19.218;2022-09-09T06:22:56;63.2;;;35.4;;
41229;SDS011;26964;50.428;19.218;2022-09-09T06:27:56;58.0;;;36.4;;
41229;SDS011;26964;50.428;19.218;2022-09-09T06:32:56;54.6;;;34.0;;
41229;SDS011;26964;50.428;19.218;2022-09-09T06:37:56;52.5;;;30.8;;
41229;SDS011;26964;50.428;19.218;2022-09-09T06:47:56;52.1;;;33.5;;
41229;SDS011;26964;50.428;19.218;2022-09-09T06:52:56;48.8;;;30.0;;
41229;SDS011;26964;50.428;19.218;2022-09-09T06:57:56;48.2;;;30.2;;
41229;SDS011;26964;50.428;19.218;2022-09-09T07:02:56;43.9;;;29.6;;
41229;SDS011;26964;50.428;19.218;2022-09-09T07:07:56;43.5;;;28.0;;
41229;SDS011;26964;50.428;19.218;2022-09-09T07:12:56;37.3;;;24.6;;
41229;SDS011;26964;50.428;19.218;2022-09-09T07:22:56;30.0;;;19.5;;
41229;SDS011;26964;50.428;19.218;2022-09-09T07:27:56;21.8;;;15.2;;
41229;SDS011;26964;50.428;19.218;2022-09-09T07:32:56;20.0;;;13.9;;
41229;SDS011;26964;50.428;19.218;2022-09-09T07:37:56;18.2;;;12.9;;
41229;SDS011;26964;50.428;19.218;2022-09-09T07:42:56;17.6;;;13.4;;
41229;SDS011;26964;50.428;19.218;2022-09-09T07:47:56;30.3;;;21.9;;
41229;SDS011;26964;50.428;19.218;2022-09-09T07:52:56;15.0;;;12.1;;
41229;SDS011;26964;50.428;19.218;2022-09-09T07:57:56;14.1;;;9.6;;
41229;SDS011;26964;50.428;19.218;2022-09-09T08:02:56;14.0;;;10.4;;
41229;SDS011;26964;50.428;19.218;2022-09-09T08:07:56;10.5;;;9.4;;
41229;SDS011;26964;50.428;19.218;2022-09-09T08:12:56;14.4;;;10.6;;
41229;SDS011;26964;50.428;19.218;2022-09-09T08:17:56;10.7;;;8.8;;
41229;SDS011;26964;50.428;19.218;2022-09-09T08:22:56;10.1;;;8.1;;
41229;SDS011;26964;50.428;19.218;2022-09-09T08:27:56;9.8;;;7.8;;
41229;SDS011;26964;50.428;19.218;2022-09-09T08:32:56;9.8;;;7.6;;
41229;SDS011;26964;50.428;19.218;2022-09-09T08:37:56;10.0;;;6.8;;
41229;SDS011;26964;50.428;19.218;2022-09-09T08:42:56;7.0;;;5.5;;
41229;SDS011;26964;50.428;19.218;2022-09-09T08:52:57;6.4;;;5.0;;
41229;SDS011;26964;50.428;19.218;2022-09-09T08:57:57;5.7;;;3.5;;
41229;SDS011;26964;50.428;19.218;2022-09-09T09:02:58;8.7;;;3.7;;
41229;SDS011;26964;50.428;19.218;2022-09-09T09:12:56;4.4;;;3.3;;
41229;SDS011;26964;50.428;19.218;2022-09-09T09:17:56;5.4;;;2.2;;
41229;SDS011;26964;50.428;19.218;2022-09-09T09:22:56;4.4;;;1.8;;
41229;SDS011;26964;50.428;19.218;2022-09-09T09:27:58;4.3;;;2.4;;
41229;SDS011;26964;50.428;19.218;2022-09-09T09:32:58;4.1;;;2.4;;
41229;SDS011;26964;50.428;19.218;2022-09-09T09:37:56;4.8;;;2.3;;
41229;SDS011;26964;50.428;19.218;2022-09-09T09:42:56;3.8;;;2.4;;
41229;SDS011;26964;50.428;19.218;2022-09-09T09:47:57;3.2;;;1.7;;
41229;SDS011;26964;50.428;19.218;2022-09-09T09:52:56;3.5;;;1.9;;
41229;SDS011;26964;50.428;19.218;2022-09-09T10:02:56;5.0;;;1.9;;
41229;SDS011;26964;50.428;19.218;2022-09-09T10:12:58;5.1;;;2.1;;
41229;SDS011;26964;50.428;19.218;2022-09-09T10:17:57;3.2;;;1.8;;
41229;SDS011;26964;50.428;19.218;2022-09-09T10:23:00;2.6;;;1.6;;
41229;SDS011;26964;50.428;19.218;2022-09-09T10:32:57;3.4;;;1.7;;
41229;SDS011;26964;50.428;19.218;2022-09-09T10:42:59;7.9;;;2.8;;
41229;SDS011;26964;50.428;19.218;2022-09-09T10:52:57;4.0;;;2.1;;
41229;SDS011;26964;50.428;19.218;2022-09-09T10:57:57;5.8;;;2.2;;
41229;SDS011;26964;50.428;19.218;2022-09-09T11:02:56;3.5;;;2.3;;
41229;SDS011;26964;50.428;19.218;2022-09-09T11:07:57;9.7;;;3.0;;
41229;SDS011;26964;50.428;19.218;2022-09-09T11:12:57;5.5;;;2.6;;
41229;SDS011;26964;50.428;19.218;2022-09-09T11:17:56;4.0;;;2.0;;
41229;SDS011;26964;50.428;19.218;2022-09-09T11:22:57;3.9;;;1.8;;
41229;SDS011;26964;50.428;19.218;2022-09-09T11:47:56;5.5;;;2.4;;
41229;SDS011;26964;50.428;19.218;2022-09-09T11:57:57;6.7;;;2.5;;
41229;SDS011;26964;50.428;19.218;2022-09-09T12:02:56;7.5;;;3.1;;
41229;SDS011;26964;50.428;19.218;2022-09-09T12:07:56;4.7;;;2.6;;
41229;SDS011;26964;50.428;19.218;2022-09-09T12:13:06;3.9;;;2.5;;
41229;SDS011;26964;50.428;19.218;2022-09-09T12:17:57;8.3;;;2.7;;
41229;SDS011;26964;50.428;19.218;2022-09-09T12:37:56;8.3;;;3.1;;
41229;SDS011;26964;50.428;19.218;2022-09-09T12:42:56;5.7;;;2.9;;
41229;SDS011;26964;50.428;19.218;2022-09-09T12:47:56;5.7;;;2.9;;
41229;SDS011;26964;50.428;19.218;2022-09-09T12:57:56;4.7;;;2.4;;
41229;SDS011;26964;50.428;19.218;2022-09-09T13:02:56;5.6;;;2.1;;
41229;SDS011;26964;50.428;19.218;2022-09-09T13:12:55;5.2;;;2.8;;
41229;SDS011;26964;50.428;19.218;2022-09-09T13:17:57;5.6;;;2.6;;
41229;SDS011;26964;50.428;19.218;2022-09-09T13:22:57;7.9;;;2.7;;
41229;SDS011;26964;50.428;19.218;2022-09-09T13:27:57;5.6;;;2.2;;
41229;SDS011;26964;50.428;19.218;2022-09-09T13:37:56;5.5;;;2.7;;
41229;SDS011;26964;50.428;19.218;2022-09-09T13:42:57;3.0;;;2.0;;
41229;SDS011;26964;50.428;19.218;2022-09-09T13:47:56;10.5;;;3.2;;
41229;SDS011;26964;50.428;19.218;2022-09-09T13:52:56;4.0;;;2.2;;
41229;SDS011;26964;50.428;19.218;2022-09-09T13:57:56;4.1;;;2.2;;
41229;SDS011;26964;50.428;19.218;2022-09-09T14:02:56;9.4;;;2.4;;
41229;SDS011;26964;50.428;19.218;2022-09-09T14:07:56;6.8;;;2.2;;
41229;SDS011;26964;50.428;19.218;2022-09-09T14:12:55;3.3;;;2.0;;
41229;SDS011;26964;50.428;19.218;2022-09-09T14:17:56;7.7;;;3.2;;
41229;SDS011;26964;50.428;19.218;2022-09-09T14:22:55;5.9;;;2.5;;
41229;SDS011;26964;50.428;19.218;2022-09-09T14:27:55;6.0;;;2.6;;
41229;SDS011;26964;50.428;19.218;2022-09-09T14:32:56;3.7;;;2.1;;
41229;SDS011;26964;50.428;19.218;2022-09-09T14:37:55;4.3;;;2.2;;
41229;SDS011;26964;50.428;19.218;2022-09-09T14:42:55;10.4;;;6.0;;
41229;SDS011;26964;50.428;19.218;2022-09-09T14:47:55;5.3;;;3.2;;
41229;SDS011;26964;50.428;19.218;2022-09-09T14:52:55;5.4;;;2.5;;
41229;SDS011;26964;50.428;19.218;2022-09-09T14:57:55;5.2;;;2.7;;
41229;SDS011;26964;50.428;19.218;2022-09-09T15:02:56;4.9;;;2.2;;
41229;SDS011;26964;50.428;19.218;2022-09-09T15:07:55;5.5;;;2.4;;
41229;SDS011;26964;50.428;19.218;2022-09-09T15:12:55;4.2;;;2.2;;
41229;SDS011;26964;50.428;19.218;2022-09-09T15:17:55;5.9;;;3.0;;
41229;SDS011;26964;50.428;19.218;2022-09-09T15:22:55;5.8;;;2.6;;
41229;SDS011;26964;50.428;19.218;2022-09-09T15:27:55;7.4;;;2.5;;
41229;SDS011;26964;50.428;19.218;2022-09-09T15:32:55;3.5;;;1.8;;
41229;SDS011;26964;50.428;19.218;2022-09-09T15:37:55;4.7;;;2.3;;
41229;SDS011;26964;50.428;19.218;2022-09-09T15:42:55;6.0;;;2.3;;
41229;SDS011;26964;50.428;19.218;2022-09-09T15:47:59;4.9;;;2.4;;
41229;SDS011;26964;50.428;19.218;2022-09-09T15:52:58;4.0;;;2.5;;
41229;SDS011;26964;50.428;19.218;2022-09-09T15:57:58;4.0;;;2.4;;
41229;SDS011;26964;50.428;19.218;2022-09-09T16:02:58;3.6;;;2.1;;
41229;SDS011;26964;50.428;19.218;2022-09-09T16:07:58;3.5;;;2.1;;
41229;SDS011;26964;50.428;19.218;2022-09-09T16:12:58;4.9;;;2.4;;
41229;SDS011;26964;50.428;19.218;2022-09-09T16:17:58;4.5;;;2.2;;
41229;SDS011;26964;50.428;19.218;2022-09-09T16:22:58;6.5;;;2.3;;
41229;SDS011;26964;50.428;19.218;2022-09-09T16:27:58;3.2;;;2.0;;
41229;SDS011;26964;50.428;19.218;2022-09-09T16:32:58;3.8;;;2.4;;
41229;SDS011;26964;50.428;19.218;2022-09-09T16:37:58;5.4;;;2.1;;
41229;SDS011;26964;50.428;19.218;2022-09-09T16:42:58;4.3;;;2.1;;
41229;SDS011;26964;50.428;19.218;2022-09-09T16:48:00;4.4;;;2.2;;
41229;SDS011;26964;50.428;19.218;2022-09-09T16:52:58;3.2;;;2.2;;
41229;SDS011;26964;50.428;19.218;2022-09-09T16:57:58;5.0;;;2.3;;
41229;SDS011;26964;50.428;19.218;2022-09-09T17:02:58;5.3;;;2.4;;
41229;SDS011;26964;50.428;19.218;2022-09-09T17:07:58;5.3;;;3.2;;
41229;SDS011;26964;50.428;19.218;2022-09-09T17:12:58;4.3;;;2.4;;
41229;SDS011;26964;50.428;19.218;2022-09-09T17:17:58;7.6;;;3.4;;
41229;SDS011;26964;50.428;19.218;2022-09-09T17:22:58;6.9;;;3.1;;
41229;SDS011;26964;50.428;19.218;2022-09-09T17:27:58;4.8;;;2.2;;
41229;SDS011;26964;50.428;19.218;2022-09-09T17:32:58;4.7;;;3.1;;
41229;SDS011;26964;50.428;19.218;2022-09-09T17:37:58;4.8;;;3.1;;
41229;SDS011;26964;50.428;19.218;2022-09-09T17:42:58;4.7;;;3.2;;
41229;SDS011;26964;50.428;19.218;2022-09-09T17:47:58;4.4;;;3.3;;
41229;SDS011;26964;50.428;19.218;2022-09-09T17:52:58;7.0;;;3.2;;
41229;SDS011;26964;50.428;19.218;2022-09-09T17:57:59;6.6;;;4.1;;
41229;SDS011;26964;50.428;19.218;2022-09-09T18:02:58;7.4;;;3.5;;
41229;SDS011;26964;50.428;19.218;2022-09-09T18:07:59;4.0;;;2.5;;
41229;SDS011;26964;50.428;19.218;2022-09-09T18:12:58;4.7;;;3.0;;
41229;SDS011;26964;50.428;19.218;2022-09-09T18:17:58;6.7;;;4.0;;
41229;SDS011;26964;50.428;19.218;2022-09-09T18:22:58;5.7;;;3.8;;
41229;SDS011;26964;50.428;19.218;2022-09-09T18:27:59;7.0;;;4.4;;
41229;SDS011;26964;50.428;19.218;2022-09-09T18:32:58;7.5;;;4.8;;
41229;SDS011;26964;50.428;19.218;2022-09-09T18:37:58;5.5;;;4.9;;
41229;SDS011;26964;50.428;19.218;2022-09-09T18:42:58;8.8;;;5.3;;
41229;SDS011;26964;50.428;19.218;2022-09-09T18:47:58;7.1;;;5.8;;
41229;SDS011;26964;50.428;19.218;2022-09-09T18:52:58;10.1;;;5.7;;
41229;SDS011;26964;50.428;19.218;2022-09-09T18:57:58;11.0;;;6.1;;
41229;SDS011;26964;50.428;19.218;2022-09-09T19:02:58;7.8;;;6.5;;
41229;SDS011;26964;50.428;19.218;2022-09-09T19:07:58;8.3;;;6.8;;
41229;SDS011;26964;50.428;19.218;2022-09-09T19:12:58;12.8;;;8.5;;
41229;SDS011;26964;50.428;19.218;2022-09-09T19:17:58;11.2;;;8.1;;
41229;SDS011;26964;50.428;19.218;2022-09-09T19:22:58;11.1;;;6.0;;
41229;SDS011;26964;50.428;19.218;2022-09-09T19:27:58;6.3;;;4.8;;
41229;SDS011;26964;50.428;19.218;2022-09-09T19:32:58;6.6;;;5.1;;
41229;SDS011;26964;50.428;19.218;2022-09-09T19:37:58;8.2;;;6.6;;
41229;SDS011;26964;50.428;19.218;2022-09-09T19:42:58;8.7;;;6.6;;
41229;SDS011;26964;50.428;19.218;2022-09-09T19:47:58;10.1;;;6.2;;
41229;SDS011;26964;50.428;19.218;2022-09-09T19:52:58;7.8;;;6.1;;
41229;SDS011;26964;50.428;19.218;2022-09-09T19:57:58;9.5;;;6.6;;
41229;SDS011;26964;50.428;19.218;2022-09-09T20:02:58;8.2;;;6.7;;
41229;SDS011;26964;50.428;19.218;2022-09-09T20:07:59;8.7;;;6.2;;
41229;SDS011;26964;50.428;19.218;2022-09-09T20:12:58;9.2;;;6.1;;
41229;SDS011;26964;50.428;19.218;2022-09-09T20:17:58;8.2;;;6.0;;
41229;SDS011;26964;50.428;19.218;2022-09-09T20:22:58;15.2;;;9.5;;
41229;SDS011;26964;50.428;19.218;2022-09-09T20:27:58;17.0;;;11.9;;
41229;SDS011;26964;50.428;19.218;2022-09-09T20:32:58;10.6;;;7.0;;
41229;SDS011;26964;50.428;19.218;2022-09-09T20:37:58;9.0;;;6.5;;
41229;SDS011;26964;50.428;19.218;2022-09-09T20:42:58;10.2;;;7.1;;
41229;SDS011;26964;50.428;19.218;2022-09-09T20:47:59;9.6;;;7.1;;
41229;SDS011;26964;50.428;19.218;2022-09-09T20:52:58;9.3;;;6.9;;
41229;SDS011;26964;50.428;19.218;2022-09-09T20:57:58;12.6;;;8.4;;
41229;SDS011;26964;50.428;19.218;2022-09-09T21:02:58;9.9;;;7.8;;
41229;SDS011;26964;50.428;19.218;2022-09-09T21:07:58;10.2;;;7.2;;
41229;SDS011;26964;50.428;19.218;2022-09-09T21:12:58;8.5;;;6.8;;
41229;SDS011;26964;50.428;19.218;2022-09-09T21:17:58;12.1;;;8.8;;
41229;SDS011;26964;50.428;19.218;2022-09-09T21:22:58;13.2;;;7.6;;
41229;SDS011;26964;50.428;19.218;2022-09-09T21:27:58;10.0;;;6.9;;
41229;SDS011;26964;50.428;19.218;2022-09-09T21:32:58;9.9;;;6.9;;
41229;SDS011;26964;50.428;19.218;2022-09-09T21:37:58;11.4;;;7.2;;
41229;SDS011;26964;50.428;19.218;2022-09-09T21:42:58;13.6;;;9.1;;
41229;SDS011;26964;50.428;19.218;2022-09-09T21:47:58;11.5;;;7.8;;
41229;SDS011;26964;50.428;19.218;2022-09-09T21:52:58;11.3;;;6.5;;
41229;SDS011;26964;50.428;19.218;2022-09-09T21:57:58;12.6;;;7.9;;
41229;SDS011;26964;50.428;19.218;2022-09-09T22:02:58;10.7;;;6.8;;
41229;SDS011;26964;50.428;19.218;2022-09-09T22:07:58;13.2;;;8.2;;
41229;SDS011;26964;50.428;19.218;2022-09-09T22:12:58;18.5;;;10.0;;
41229;SDS011;26964;50.428;19.218;2022-09-09T22:17:58;11.1;;;7.6;;
41229;SDS011;26964;50.428;19.218;2022-09-09T22:22:58;11.2;;;7.1;;
41229;SDS011;26964;50.428;19.218;2022-09-09T22:27:58;9.5;;;6.6;;
41229;SDS011;26964;50.428;19.218;2022-09-09T22:32:58;10.4;;;7.0;;
41229;SDS011;26964;50.428;19.218;2022-09-09T22:37:58;13.1;;;7.8;;
41229;SDS011;26964;50.428;19.218;2022-09-09T22:42:58;16.7;;;8.0;;
41229;SDS011;26964;50.428;19.218;2022-09-09T22:47:58;13.2;;;6.9;;
41229;SDS011;26964;50.428;19.218;2022-09-09T22:52:59;9.0;;;7.0;;
41229;SDS011;26964;50.428;19.218;2022-09-09T22:58:00;11.4;;;6.8;;
41229;SDS011;26964;50.428;19.218;2022-09-09T23:02:58;9.4;;;7.7;;
41229;SDS011;26964;50.428;19.218;2022-09-09T23:07:58;11.1;;;7.5;;
41229;SDS011;26964;50.428;19.218;2022-09-09T23:12:58;11.3;;;8.4;;
41229;SDS011;26964;50.428;19.218;2022-09-09T23:17:57;12.1;;;8.1;;
41229;SDS011;26964;50.428;19.218;2022-09-09T23:22:58;11.0;;;8.5;;
41229;SDS011;26964;50.428;19.218;2022-09-09T23:27:57;11.9;;;8.5;;
41229;SDS011;26964;50.428;19.218;2022-09-09T23:32:58;14.1;;;9.2;;
41229;SDS011;26964;50.428;19.218;2022-09-09T23:37:58;10.9;;;8.4;;
41229;SDS011;26964;50.428;19.218;2022-09-09T23:42:58;11.4;;;8.8;;
41229;SDS011;26964;50.428;19.218;2022-09-09T23:47:58;13.4;;;8.7;;
41229;SDS011;26964;50.428;19.218;2022-09-09T23:52:57;12.2;;;9.1;;
41229;SDS011;26964;50.428;19.218;2022-09-09T23:57:58;10.4;;;8.3;;
